| time (UTC) | temp F | wind direction | speed knots | gust knots | rain 1hr in | rain 24hr in | rain mn in | humidity % | barometer mb |
| 20260507111506 | 44 | 282 | 0.0 | 0.9 | 0.00 | 0.00 | 0.00 | 61 | 1038.0 |
| 20260507110004 | 44 | 274 | 0.0 | 0.9 | 0.00 | 0.00 | 0.00 | 60 | 1038.0 |
| 20260507104504 | 45 | 250 | 0.0 | 0.9 | 0.00 | 0.00 | 0.00 | 60 | 1038.0 |
| 20260507103004 | 45 | 280 | 0.0 | 0.9 | 0.00 | 0.00 | 0.00 | 60 | 1038.0 |
| 20260507101504 | 45 | 260 | 0.0 | 0.9 | 0.00 | 0.00 | 0.00 | 59 | 1037.8 |
| 20260507100004 | 46 | 275 | 0.0 | 0.9 | 0.00 | 0.00 | 0.00 | 58 | 1037.8 |
| 20260507094504 | 46 | 274 | 0.0 | 1.7 | 0.00 | 0.00 | 0.00 | 58 | 1037.8 |
| 20260507093025 | 46 | 253 | 0.0 | 0.9 | 0.00 | 0.00 | 0.00 | 58 | 1037.8 |
| 20260507091503 | 46 | 278 | 0.0 | 0.9 | 0.00 | 0.00 | 0.00 | 58 | 1037.8 |
| 20260507090005 | 47 | 0 | 0.0 | 0.0 | 0.00 | 0.00 | 0.00 | 57 | 1037.8 |
| 20260507084504 | 48 | 255 | 0.0 | 0.9 | 0.00 | 0.00 | 0.00 | 56 | 1037.8 |
| 20260507083025 | 50 | 248 | 0.0 | 0.9 | 0.00 | 0.00 | 0.00 | 52 | 1037.9 |
| 20260507081504 | 51 | 0 | 0.0 | 0.0 | 0.00 | 0.00 | 0.00 | 50 | 1037.8 |
| 20260507080025 | 53 | 239 | 0.0 | 0.9 | 0.00 | 0.00 | 0.00 | 48 | 1037.7 |
| 20260507074503 | 53 | 230 | 0.0 | 0.9 | 0.00 | 0.00 | 0.00 | 47 | 1037.6 |
| 20260507073004 | 54 | 227 | 0.0 | 1.7 | 0.00 | 0.00 | 0.00 | 46 | 1037.5 |
| 20260507071504 | 54 | 240 | 0.0 | 2.6 | 0.00 | 0.00 | 0.00 | 45 | 1037.5 |
| 20260507070007 | 54 | 213 | 0.0 | 2.6 | 0.00 | 0.00 | 0.00 | 45 | 1037.5 |
| 20260507064505 | 55 | 218 | 0.0 | 3.5 | 0.00 | 0.00 | 0.00 | 45 | 1037.5 |
| 20260507063003 | 55 | 230 | 0.0 | 2.6 | 0.00 | 0.00 | 0.00 | 44 | 1037.4 |
| 20260507061503 | 56 | 212 | 0.9 | 6.1 | 0.00 | 0.00 | 0.00 | 43 | 1037.2 |
| 20260507060004 | 56 | 224 | 0.0 | 2.6 | 0.00 | 0.00 | 0.00 | 43 | 1037.2 |
| 20260507054525 | 56 | 212 | 0.9 | 2.6 | 0.00 | 0.00 | 0.00 | 43 | 1037.1 |
| 20260507053004 | 57 | 224 | 0.9 | 3.5 | 0.00 | 0.00 | 0.00 | 41 | 1037.1 |
| 20260507051503 | 57 | 224 | 0.9 | 2.6 | 0.00 | 0.00 | 0.00 | 41 | 1036.9 |
| 20260507050003 | 57 | 224 | 0.0 | 2.6 | 0.00 | 0.00 | 0.00 | 41 | 1036.8 |
| 20260507044503 | 58 | 223 | 0.0 | 1.7 | 0.00 | 0.00 | 0.00 | 41 | 1036.6 |
| 20260507043003 | 58 | 224 | 0.9 | 2.6 | 0.00 | 0.00 | 0.00 | 40 | 1036.6 |
| 20260507041527 | 58 | 229 | 0.9 | 2.6 | 0.00 | 0.00 | 0.00 | 40 | 1036.4 |
| 20260507040007 | 59 | 228 | 0.9 | 5.2 | 0.00 | 0.00 | 0.00 | 38 | 1036.2 |
| 20260507034506 | 60 | 234 | 0.9 | 3.5 | 0.00 | 0.00 | 0.00 | 38 | 1036.0 |
| 20260507033006 | 61 | 242 | 0.9 | 4.3 | 0.00 | 0.00 | 0.00 | 37 | 1035.8 |
| 20260507031505 | 61 | 241 | 1.7 | 7.0 | 0.00 | 0.00 | 0.00 | 36 | 1035.6 |
| 20260507030027 | 62 | 226 | 1.7 | 5.2 | 0.00 | 0.00 | 0.00 | 36 | 1035.5 |
| 20260507024505 | 63 | 234 | 1.7 | 4.3 | 0.00 | 0.00 | 0.00 | 35 | 1035.2 |
| 20260507023006 | 63 | 234 | 0.9 | 5.2 | 0.00 | 0.00 | 0.00 | 34 | 1035.0 |
| 20260507021505 | 64 | 267 | 1.7 | 5.2 | 0.00 | 0.00 | 0.00 | 33 | 1034.6 |
| 20260507020006 | 66 | 272 | 1.7 | 5.2 | 0.00 | 0.00 | 0.00 | 32 | 1034.4 |
| 20260507014506 | 67 | 282 | 1.7 | 7.0 | 0.00 | 0.00 | 0.00 | 30 | 1034.3 |
| 20260507013006 | 69 | 287 | 2.6 | 6.1 | 0.00 | 0.00 | 0.00 | 28 | 1034.1 |
| 20260507011505 | 72 | 280 | 1.7 | 5.2 | 0.00 | 0.00 | 0.00 | 26 | 1034.1 |
| 20260507010005 | 74 | 297 | 1.7 | 6.1 | 0.00 | 0.00 | 0.00 | 25 | 1034.0 |
| 20260507004505 | 74 | 325 | 1.7 | 5.2 | 0.00 | 0.00 | 0.00 | 24 | 1034.0 |
| 20260507003005 | 74 | 325 | 1.7 | 5.2 | 0.00 | 0.00 | 0.00 | 24 | 1033.9 |
| 20260507001505 | 75 | 264 | 0.9 | 6.1 | 0.00 | 0.00 | 0.00 | 23 | 1033.9 |
| 20260507000005 | 74 | 305 | 1.7 | 4.3 | 0.00 | 0.00 | 0.00 | 24 | 1033.8 |
| 20260506234505 | 74 | 343 | 1.7 | 5.2 | 0.00 | 0.00 | 0.00 | 25 | 1033.7 |
| 20260506233006 | 73 | 47 | 2.6 | 8.7 | 0.00 | 0.00 | 0.00 | 23 | 1033.8 |
| 20260506231505 | 75 | 218 | 0.9 | 3.5 | 0.00 | 0.00 | 0.00 | 23 | 1034.0 |
| 20260506230005 | 72 | 214 | 0.9 | 3.5 | 0.00 | 0.00 | 0.00 | 24 | 1033.9 |
| 20260506224505 | 72 | 267 | 0.9 | 3.5 | 0.00 | 0.00 | 0.00 | 25 | 1034.1 |
| 20260506223005 | 72 | 15 | 1.7 | 6.1 | 0.00 | 0.00 | 0.00 | 26 | 1034.2 |
| 20260506221526 | 75 | 315 | 1.7 | 7.0 | 0.00 | 0.00 | 0.00 | 23 | 1034.4 |
| 20260506220006 | 73 | 16 | 3.5 | 11.3 | 0.00 | 0.00 | 0.00 | 24 | 1034.5 |
| 20260506214505 | 74 | 294 | 1.7 | 5.2 | 0.00 | 0.00 | 0.00 | 23 | 1034.8 |
| 20260506213005 | 73 | 4 | 2.6 | 8.7 | 0.00 | 0.00 | 0.00 | 23 | 1034.9 |
| 20260506211505 | 73 | 326 | 1.7 | 6.1 | 0.00 | 0.00 | 0.00 | 23 | 1035.1 |
| 20260506210005 | 72 | 250 | 0.9 | 3.5 | 0.00 | 0.00 | 0.00 | 24 | 1035.3 |
| 20260506204505 | 71 | 349 | 1.7 | 6.1 | 0.00 | 0.00 | 0.00 | 25 | 1035.4 |
| 20260506203005 | 70 | 92 | 2.6 | 6.1 | 0.00 | 0.00 | 0.00 | 27 | 1035.5 |
| 20260506201504 | 68 | 107 | 1.7 | 5.2 | 0.00 | 0.00 | 0.00 | 27 | 1035.6 |
| 20260506200005 | 69 | 39 | 3.5 | 7.8 | 0.00 | 0.00 | 0.00 | 27 | 1035.7 |
| 20260506194506 | 69 | 44 | 1.7 | 7.0 | 0.00 | 0.00 | 0.00 | 27 | 1035.8 |
| 20260506193005 | 69 | 355 | 2.6 | 7.8 | 0.00 | 0.00 | 0.00 | 25 | 1036.0 |
| 20260506191505 | 68 | 7 | 3.5 | 7.8 | 0.00 | 0.00 | 0.00 | 27 | 1036.0 |
| 20260506190005 | 67 | 53 | 2.6 | 7.0 | 0.00 | 0.00 | 0.00 | 28 | 1036.1 |
| 20260506184504 | 68 | 353 | 2.6 | 7.0 | 0.00 | 0.00 | 0.00 | 26 | 1036.3 |
| 20260506183005 | 68 | 297 | 1.7 | 4.3 | 0.00 | 0.00 | 0.00 | 26 | 1036.4 |
| 20260506181505 | 67 | 358 | 2.6 | 5.2 | 0.00 | 0.00 | 0.00 | 27 | 1036.5 |
| 20260506180006 | 67 | 360 | 1.7 | 7.8 | 0.00 | 0.00 | 0.00 | 27 | 1036.5 |
| 20260506174506 | 65 | 321 | 1.7 | 5.2 | 0.00 | 0.00 | 0.00 | 28 | 1036.4 |
| 20260506173006 | 65 | 354 | 1.7 | 5.2 | 0.00 | 0.00 | 0.00 | 30 | 1036.4 |
| 20260506171504 | 63 | 63 | 2.6 | 6.1 | 0.00 | 0.00 | 0.00 | 32 | 1036.2 |
| 20260506170004 | 63 | 356 | 1.7 | 6.1 | 0.00 | 0.00 | 0.00 | 32 | 1036.2 |
| 20260506164504 | 62 | 346 | 1.7 | 4.3 | 0.00 | 0.00 | 0.00 | 33 | 1036.3 |
| 20260506163005 | 62 | 67 | 1.7 | 12.2 | 0.00 | 0.00 | 0.00 | 35 | 1036.2 |
| 20260506161505 | 61 | 169 | 0.9 | 2.6 | 0.00 | 0.00 | 0.00 | 36 | 1036.1 |
| 20260506160005 | 59 | 90 | 0.9 | 4.3 | 0.00 | 0.00 | 0.00 | 38 | 1036.1 |
| 20260506154504 | 59 | 31 | 0.9 | 3.5 | 0.00 | 0.00 | 0.00 | 39 | 1036.0 |
| 20260506153025 | 58 | 92 | 1.7 | 4.3 | 0.00 | 0.00 | 0.00 | 40 | 1036.0 |
| 20260506151504 | 58 | 96 | 0.9 | 3.5 | 0.00 | 0.00 | 0.00 | 40 | 1036.0 |
| 20260506150004 | 57 | 94 | 0.9 | 2.6 | 0.00 | 0.00 | 0.00 | 43 | 1035.9 |
| 20260506144504 | 57 | 96 | 0.9 | 2.6 | 0.00 | 0.00 | 0.00 | 43 | 1035.9 |
| 20260506143004 | 55 | 19 | 0.0 | 1.7 | 0.00 | 0.00 | 0.00 | 46 | 1035.8 |
| 20260506141526 | 51 | 258 | 0.0 | 0.9 | 0.00 | 0.00 | 0.00 | 53 | 1035.7 |
| 20260506140005 | 48 | 259 | 0.0 | 0.9 | 0.00 | 0.00 | 0.00 | 58 | 1035.5 |
| 20260506134504 | 45 | 259 | 0.0 | 0.9 | 0.00 | 0.00 | 0.00 | 62 | 1035.5 |
| 20260506133004 | 42 | 280 | 0.0 | 0.9 | 0.00 | 0.00 | 0.00 | 65 | 1035.2 |
| 20260506131504 | 40 | 271 | 0.0 | 0.9 | 0.00 | 0.00 | 0.00 | 68 | 1035.1 |
| 20260506130004 | 39 | 273 | 0.0 | 0.9 | 0.00 | 0.00 | 0.00 | 70 | 1034.9 |
| 20260506124504 | 38 | 244 | 0.0 | 0.9 | 0.00 | 0.00 | 0.00 | 71 | 1034.9 |
| 20260506123004 | 38 | 283 | 0.0 | 0.9 | 0.00 | 0.00 | 0.00 | 71 | 1034.6 |
| 20260506121504 | 38 | 279 | 0.0 | 0.9 | 0.00 | 0.00 | 0.00 | 71 | 1034.4 |
| 20260506120005 | 37 | 255 | 0.0 | 0.9 | 0.00 | 0.00 | 0.00 | 71 | 1034.5 |
| 20260506114504 | 38 | 246 | 0.0 | 0.9 | 0.00 | 0.00 | 0.00 | 70 | 1034.5 |
| 20260506113004 | 38 | 207 | 0.0 | 0.9 | 0.00 | 0.00 | 0.00 | 70 | 1034.5 |